Time;durP1;ratioP1;P1;durP2;ratioP2;P2;SDS_P1;SDS_P2;PMS_P1;PMS_P2;Temp;Humidity;BMP_temperature;BMP_pressure;BME280_temperature;BME280_humidity;BME280_pressure;Samples;Min_cycle;Max_cycle;Signal;HPM_P1;HPM_P2
2022/01/22 00:00:52;;;;;;;4.53;3.53;;;;;;;-0.23;54.53;99964.22;5008908;28;20197;-55
2022/01/22 00:03:19;;;;;;;5.70;3.70;;;;;;;-0.21;55.44;99967.72;5008745;28;20201;-54
2022/01/22 00:05:46;;;;;;;4.37;3.30;;;;;;;-0.26;55.10;99958.09;5008517;28;20305;-55
2022/01/22 00:08:13;;;;;;;5.57;4.03;;;;;;;-0.25;55.16;99959.88;5006608;28;20236;-54
2022/01/22 00:10:44;;;;;;;5.40;3.83;;;;;;;-0.43;55.57;99934.28;5008044;28;20668;-55
2022/01/22 00:15:57;;;;;;;6.27;4.00;;;;;;;-0.32;56.50;99955.16;5010142;28;20188;-58
2022/01/22 00:18:24;;;;;;;3.47;3.13;;;;;;;-0.31;56.43;99959.44;5009510;28;20194;-58
2022/01/22 00:20:51;;;;;;;6.67;3.80;;;;;;;-0.28;55.99;99968.13;5000112;28;20198;-59
2022/01/22 00:23:20;;;;;;;5.13;3.77;;;;;;;-0.20;55.48;99959.41;5009800;28;20201;-58
2022/01/22 00:25:47;;;;;;;4.47;3.65;;;;;;;-0.18;54.43;99956.94;5009855;28;20459;-55
2022/01/22 00:28:14;;;;;;;6.07;3.23;;;;;;;-0.13;54.46;99958.13;5010287;28;20189;-55
2022/01/22 00:30:41;;;;;;;4.63;2.93;;;;;;;-0.14;54.58;99958.91;5010093;28;20202;-55
2022/01/22 00:33:10;;;;;;;5.17;3.50;;;;;;;-0.20;54.66;99955.97;5010008;28;20224;-55
2022/01/22 00:35:37;;;;;;;4.60;3.57;;;;;;;-0.22;53.75;99960.91;5010009;28;20197;-55
2022/01/22 00:38:04;;;;;;;3.90;3.40;;;;;;;-0.20;53.60;99953.47;5009849;28;20288;-55
2022/01/22 00:40:31;;;;;;;4.70;3.23;;;;;;;-0.30;54.60;99943.53;5014753;28;20699;-54
2022/01/22 00:42:58;;;;;;;4.00;3.17;;;;;;;-0.28;54.81;99944.50;5029427;28;20189;-54
2022/01/22 00:45:25;;;;;;;4.27;3.77;;;;;;;-0.37;54.12;99952.34;5029657;28;20197;-54
2022/01/22 00:47:52;;;;;;;5.57;3.50;;;;;;;-0.45;54.42;99947.56;5031726;28;20283;-54
2022/01/22 00:50:23;;;;;;;4.23;3.73;;;;;;;-0.46;54.99;99950.84;5033066;28;20224;-54
2022/01/22 00:52:50;;;;;;;7.77;3.57;;;;;;;-0.41;53.55;99960.47;5033110;28;20326;-54
2022/01/22 00:55:17;;;;;;;5.40;3.27;;;;;;;-0.40;53.78;99948.75;5032919;28;20204;-54
2022/01/22 00:57:45;;;;;;;6.50;4.00;;;;;;;-0.40;52.87;99946.22;5033059;28;20196;-54
2022/01/22 01:00:13;;;;;;;3.77;3.37;;;;;;;-0.44;53.10;99947.66;5033001;28;20303;-54
2022/01/22 01:02:41;;;;;;;5.23;3.23;;;;;;;-0.44;52.55;99949.34;5032672;28;20193;-54
2022/01/22 01:05:10;;;;;;;3.63;3.33;;;;;;;-0.47;51.68;99956.69;5032819;28;20204;-53
2022/01/22 01:07:39;;;;;;;7.93;3.63;;;;;;;-0.50;52.47;99952.31;5032653;28;20195;-54
2022/01/22 01:10:08;;;;;;;3.90;3.17;;;;;;;-0.54;52.20;99945.31;5032607;28;20193;-54
2022/01/22 01:12:36;;;;;;;3.95;3.55;;;;;;;-0.51;51.96;99943.00;5031778;28;20536;-54
2022/01/22 01:15:15;;;;;;;4.40;4.00;;;;;;;-0.45;51.36;99943.41;5032542;28;20197;-54
2022/01/22 01:34:14;;;;;;;3.37;2.97;;;;;;;-0.37;50.98;99946.41;5032632;28;20624;-54
2022/01/22 01:36:41;;;;;;;3.23;2.70;;;;;;;-0.45;50.42;99929.91;5032445;28;20251;-54
2022/01/22 01:39:14;;;;;;;3.50;2.97;;;;;;;-0.57;50.38;99906.38;5032162;28;20567;-54
2022/01/22 01:41:49;;;;;;;4.87;3.00;;;;;;;-0.48;50.21;99935.63;5031996;28;20235;-54
2022/01/22 01:44:16;;;;;;;3.57;3.03;;;;;;;-0.46;50.85;99915.53;5017544;28;20193;-54
2022/01/22 01:46:44;;;;;;;5.60;3.23;;;;;;;-0.52;50.66;99925.25;5012364;28;20198;-54
2022/01/22 01:49:12;;;;;;;3.23;2.93;;;;;;;-0.47;49.97;99918.84;5012215;28;20284;-54
2022/01/22 01:51:39;;;;;;;4.73;3.13;;;;;;;-0.55;49.76;99912.41;5011993;28;20205;-54
2022/01/22 01:54:23;;;;;;;3.57;3.27;;;;;;;-0.56;50.26;99915.69;5011980;28;20193;-54
2022/01/22 01:59:35;;;;;;;6.57;3.70;;;;;;;-0.56;49.52;99916.59;4994639;28;20292;-54
2022/01/22 02:02:03;;;;;;;6.03;3.47;;;;;;;-0.62;50.05;99904.44;5012171;28;20193;-54
2022/01/22 02:04:30;;;;;;;3.93;3.47;;;;;;;-0.57;50.27;99917.34;5012088;28;21005;-54
2022/01/22 02:06:57;;;;;;;4.47;3.70;;;;;;;-0.55;50.23;99913.28;5012221;28;20189;-54
2022/01/22 02:09:24;;;;;;;4.97;3.70;;;;;;;-0.55;49.75;99917.47;5011950;28;20194;-54
2022/01/22 02:12:00;;;;;;;3.90;3.43;;;;;;;-0.60;50.05;99910.44;5012172;28;20327;-53
2022/01/22 02:25:31;;;;;;;4.80;4.10;;;;;;;-0.88;49.88;99848.84;4992385;28;20229;-54
2022/01/22 02:27:59;;;;;;;5.73;4.47;;;;;;;-0.60;49.95;99902.00;4996105;28;20248;-55
2022/01/22 02:30:30;;;;;;;6.70;4.20;;;;;;;-0.60;50.37;99891.91;5010938;28;20236;-54
2022/01/22 02:33:14;;;;;;;5.63;4.50;;;;;;;-0.58;50.65;99889.50;5011155;28;20201;-54
2022/01/22 02:35:48;;;;;;;6.07;3.90;;;;;;;-0.57;50.62;99891.22;5010477;28;20186;-55
2022/01/22 02:38:21;;;;;;;4.10;3.67;;;;;;;-0.80;50.40;99855.31;5010810;28;20193;-55
2022/01/22 02:40:49;;;;;;;5.50;3.87;;;;;;;-0.61;50.55;99882.59;5008203;28;20248;-55
2022/01/22 02:43:18;;;;;;;4.40;4.00;;;;;;;-0.57;51.08;99882.00;5010942;28;20182;-55
2022/01/22 02:45:47;;;;;;;4.33;3.93;;;;;;;-0.54;50.36;99887.28;5010511;28;20188;-55
2022/01/22 02:48:14;;;;;;;3.80;3.50;;;;;;;-0.55;51.29;99887.19;5011098;28;20240;-55
2022/01/22 02:50:41;;;;;;;6.37;3.80;;;;;;;-0.54;50.23;99884.75;5011164;28;20198;-55
2022/01/22 02:53:10;;;;;;;7.80;4.00;;;;;;;-0.51;50.70;99889.13;5008189;28;20990;-55
2022/01/22 02:55:39;;;;;;;5.53;3.80;;;;;;;-0.53;50.36;99885.63;5010475;28;20200;-55
2022/01/22 02:58:06;;;;;;;4.27;3.70;;;;;;;-0.63;50.50;99869.00;5010782;28;20272;-55
2022/01/22 03:00:33;;;;;;;5.30;4.40;;;;;;;-0.72;50.89;99849.13;5010530;28;20185;-55
2022/01/22 03:03:00;;;;;;;5.90;3.60;;;;;;;-0.51;50.29;99876.50;5010475;28;20280;-55
2022/01/22 03:05:27;;;;;;;5.30;4.47;;;;;;;-0.55;50.91;99882.13;5010319;28;20181;-55
2022/01/22 03:07:56;;;;;;;3.50;3.20;;;;;;;-0.56;50.45;99867.75;5010093;28;20181;-55
2022/01/22 03:10:26;;;;;;;3.57;3.27;;;;;;;-0.99;50.10;99808.59;5010010;28;20294;-55
2022/01/22 03:15:51;;;;;;;6.10;3.63;;;;;;;-0.53;50.02;99878.06;4997143;28;20521;-55
2022/01/22 03:18:22;;;;;;;3.80;3.37;;;;;;;-0.57;50.00;99860.94;5010668;28;20197;-55
2022/01/22 03:21:07;;;;;;;3.97;3.00;;;;;;;-0.46;50.36;99867.56;5007049;28;20247;-55
2022/01/22 03:29:08;;;;;;;4.63;3.97;;;;;;;-0.57;50.95;99866.88;5010313;28;20207;-55
2022/01/22 03:31:36;;;;;;;5.03;4.00;;;;;;;-0.66;51.29;99853.69;5008140;28;20204;-54
2022/01/22 03:34:04;;;;;;;5.27;3.50;;;;;;;-0.72;50.91;99848.22;5008913;28;20194;-54
2022/01/22 03:36:33;;;;;;;4.47;3.90;;;;;;;-0.64;52.20;99867.25;5008956;28;20190;-54
2022/01/22 03:39:01;;;;;;;5.07;3.40;;;;;;;-0.58;51.67;99872.72;5008990;28;20268;-54
2022/01/22 03:41:28;;;;;;;3.83;3.53;;;;;;;-0.56;50.80;99862.72;5010291;28;20233;-54
2022/01/22 03:43:56;;;;;;;7.30;3.80;;;;;;;-0.54;51.16;99867.09;5010683;28;20204;-54
2022/01/22 03:46:24;;;;;;;3.87;3.37;;;;;;;-0.55;50.79;99867.88;5010569;28;20220;-54
2022/01/22 03:48:51;;;;;;;10.03;3.93;;;;;;;-0.55;51.29;99865.34;5010332;28;20197;-54
2022/01/22 03:51:18;;;;;;;4.17;3.77;;;;;;;-0.52;51.22;99877.28;5010125;28;20280;-54
2022/01/22 03:53:45;;;;;;;7.40;3.77;;;;;;;-0.55;50.96;99872.94;5010055;28;20743;-54
2022/01/22 03:56:12;;;;;;;3.50;3.20;;;;;;;-0.58;50.54;99857.59;5009662;28;20177;-54
2022/01/22 03:58:42;;;;;;;4.37;3.40;;;;;;;-0.53;50.99;99865.44;5007206;28;20190;-54
2022/01/22 04:04:02;;;;;;;8.73;3.70;;;;;;;-0.66;50.27;99843.59;4984774;28;20190;-54
2022/01/22 04:09:14;;;;;;;5.43;3.40;;;;;;;-0.58;50.87;99861.75;5006744;28;20564;-54
2022/01/22 04:11:44;;;;;;;4.70;3.88;;;;;;;-0.53;50.66;99867.97;5010048;28;20451;-54
2022/01/22 04:14:16;;;;;;;6.90;3.73;;;;;;;-0.85;51.23;99803.66;5010062;28;20221;-54
2022/01/22 04:16:56;;;;;;;4.27;3.30;;;;;;;-0.57;51.38;99860.94;5010082;28;20194;-54
2022/01/22 04:24:55;;;;;;;5.83;3.57;;;;;;;-0.66;51.82;99857.06;5013759;28;20212;-54
2022/01/22 04:27:24;;;;;;;4.20;3.80;;;;;;;-0.65;51.57;99865.50;5013694;28;20730;-55
2022/01/22 04:29:52;;;;;;;4.10;3.70;;;;;;;-0.63;51.75;99851.34;5013815;28;20212;-54
2022/01/22 04:32:19;;;;;;;5.90;3.70;;;;;;;-0.71;52.21;99860.06;5013733;28;20198;-54
2022/01/22 04:34:48;;;;;;;5.80;3.80;;;;;;;-0.70;51.82;99862.69;5013779;28;20284;-54
2022/01/22 04:37:17;;;;;;;4.77;4.30;;;;;;;-0.78;53.14;99861.31;5013563;28;20285;-54
2022/01/22 04:39:45;;;;;;;4.33;3.93;;;;;;;-0.86;53.10;99854.88;5013623;28;20201;-54
2022/01/22 04:42:12;;;;;;;9.90;4.70;;;;;;;-0.86;53.33;99849.84;5013562;28;20232;-55
2022/01/22 04:44:47;;;;;;;6.13;4.07;;;;;;;-0.90;52.96;99857.09;5013460;28;20285;-55
2022/01/22 04:47:28;;;;;;;6.57;4.00;;;;;;;-0.93;52.67;99854.34;5013507;28;20923;-54
2022/01/22 04:52:44;;;;;;;6.47;3.77;;;;;;;-0.92;52.50;99866.22;5013328;28;20499;-56
2022/01/22 04:55:11;;;;;;;5.10;3.47;;;;;;;-0.91;52.56;99865.44;5013148;28;20719;-54
2022/01/22 04:57:40;;;;;;;5.80;4.37;;;;;;;-0.91;52.06;99856.25;5013150;28;20202;-54
2022/01/22 05:00:12;;;;;;;4.07;3.70;;;;;;;-0.88;51.96;99858.94;5013021;28;20201;-54
2022/01/22 05:02:39;;;;;;;5.17;3.70;;;;;;;-0.91;51.89;99853.72;5013205;28;20317;-54
2022/01/22 05:05:08;;;;;;;4.70;3.60;;;;;;;-0.86;52.48;99857.41;5013133;28;20201;-54
2022/01/22 05:07:35;;;;;;;4.37;3.53;;;;;;;-0.85;51.20;99855.78;5013011;28;20759;-54
2022/01/22 05:10:03;;;;;;;4.03;3.63;;;;;;;-0.93;52.01;99850.19;5012164;28;20474;-54
2022/01/22 05:12:30;;;;;;;4.07;3.67;;;;;;;-0.79;51.00;99849.47;5012676;28;20204;-54
2022/01/22 05:14:57;;;;;;;7.10;3.87;;;;;;;-0.77;50.84;99847.91;5012730;28;20657;-54
2022/01/22 05:17:24;;;;;;;2.97;2.77;;;;;;;-0.76;50.65;99844.63;5013075;28;20285;-54
2022/01/22 05:19:55;;;;;;;5.27;3.53;;;;;;;-0.79;50.62;99841.91;5012450;28;20225;-54
2022/01/22 05:22:40;;;;;;;5.00;3.60;;;;;;;-0.72;50.91;99840.66;5012294;28;20200;-54
2022/01/22 05:25:13;;;;;;;7.37;2.93;;;;;;;-0.82;50.73;99840.81;5012599;28;20631;-54
2022/01/22 05:27:55;;;;;;;4.57;3.07;;;;;;;-0.78;50.61;99841.13;5012406;28;20285;-54
2022/01/22 05:30:50;;;;;;;3.30;3.00;;;;;;;-0.75;51.31;99841.34;5012607;28;20193;-55
2022/01/22 05:33:33;;;;;;;4.67;3.90;;;;;;;-0.79;50.71;99841.91;5011748;28;20692;-55
2022/01/22 05:38:45;;;;;;;6.20;3.50;;;;;;;-0.71;50.93;99840.75;5012511;28;20192;-55
2022/01/22 05:41:13;;;;;;;6.23;3.40;;;;;;;-0.76;50.99;99841.22;5012032;28;20229;-55
2022/01/22 05:43:40;;;;;;;7.40;3.30;;;;;;;-0.67;50.01;99852.81;5012374;28;20189;-55
2022/01/22 05:46:06;;;;;;;9.07;4.67;;;;;;;-0.62;50.20;99840.47;5012128;28;20190;-55
2022/01/22 05:48:33;;;;;;;4.70;3.30;;;;;;;-0.58;50.38;99851.66;5012409;28;20197;-55
2022/01/22 05:51:03;;;;;;;5.23;3.43;;;;;;;-0.59;50.82;99850.78;5012037;28;20196;-55
2022/01/22 05:53:42;;;;;;;5.37;3.60;;;;;;;-0.60;51.06;99852.41;5012115;28;20573;-58
2022/01/22 06:01:39;;;;;;;5.53;4.10;;;;;;;-0.58;51.19;99846.59;5011935;28;20200;-58
2022/01/22 06:04:06;;;;;;;8.73;4.17;;;;;;;-0.57;51.17;99843.28;5011933;28;20190;-58
2022/01/22 06:06:33;;;;;;;8.20;4.47;;;;;;;-0.82;50.33;99805.50;5011901;28;20204;-60
2022/01/22 06:09:03;;;;;;;6.70;4.13;;;;;;;-0.52;50.40;99831.88;5011748;28;20190;-59
2022/01/22 06:11:36;;;;;;;6.17;3.87;;;;;;;-0.49;50.81;99837.09;5012006;28;20657;-63
2022/01/22 06:14:04;;;;;;;5.77;4.00;;;;;;;-0.48;50.36;99829.63;5011900;28;20225;-59
2022/01/22 06:16:31;;;;;;;4.57;4.17;;;;;;;-0.45;50.30;99832.38;5011419;28;20209;-59
2022/01/22 06:18:57;;;;;;;7.10;4.10;;;;;;;-0.42;49.30;99826.63;5011605;28;20572;-59
2022/01/22 06:21:24;;;;;;;4.87;3.90;;;;;;;-0.41;50.36;99826.72;5011382;28;20189;-59
2022/01/22 06:23:51;;;;;;;4.50;3.70;;;;;;;-0.42;49.63;99819.94;5011470;28;20195;-58
2022/01/22 06:26:18;;;;;;;6.40;4.13;;;;;;;-0.35;49.67;99822.06;5011413;28;20669;-58
2022/01/22 06:28:46;;;;;;;4.83;3.90;;;;;;;-0.35;49.51;99821.19;5011593;28;20224;-57
2022/01/22 06:31:13;;;;;;;6.40;4.40;;;;;;;-0.29;49.00;99831.69;5011427;28;20204;-58
2022/01/22 06:33:40;;;;;;;4.87;3.57;;;;;;;-0.27;48.79;99810.81;5011005;28;20221;-59
2022/01/22 06:36:07;;;;;;;4.33;3.73;;;;;;;-0.27;48.61;99810.81;5011057;28;20198;-57
2022/01/22 06:38:34;;;;;;;5.90;3.90;;;;;;;-0.20;48.71;99812.06;5011244;28;20201;-58
2022/01/22 06:43:47;;;;;;;6.87;4.07;;;;;;;-0.02;48.33;99798.94;5010786;28;20196;-58
2022/01/22 06:46:14;;;;;;;5.30;4.00;;;;;;;0.03;47.34;99804.28;5010643;28;20217;-58
2022/01/22 06:48:41;;;;;;;4.50;3.50;;;;;;;0.08;47.97;99797.88;5011065;28;20242;-58
2022/01/22 06:51:08;;;;;;;4.67;3.57;;;;;;;0.15;47.22;99787.34;5011191;28;20197;-59
2022/01/22 06:53:40;;;;;;;6.63;4.23;;;;;;;0.23;47.66;99801.34;5011181;28;20308;-58
2022/01/22 06:56:08;;;;;;;6.07;3.60;;;;;;;0.28;47.55;99794.91;5010988;28;20550;-59
2022/01/22 06:58:35;;;;;;;5.63;4.07;;;;;;;0.26;46.72;99796.47;5010716;28;20221;-59
2022/01/22 07:01:03;;;;;;;4.30;3.60;;;;;;;0.20;47.05;99791.03;5010418;28;20682;-59
2022/01/22 07:03:30;;;;;;;6.40;3.67;;;;;;;0.22;47.54;99791.16;5010535;28;20671;-58
2022/01/22 07:05:57;;;;;;;8.33;4.40;;;;;;;0.25;47.17;99794.72;5010761;28;20197;-58
2022/01/22 07:08:24;;;;;;;6.53;4.87;;;;;;;0.29;46.96;99800.84;5010471;28;20743;-58
2022/01/22 07:10:51;;;;;;;8.23;5.37;;;;;;;0.32;47.17;99795.97;5010517;28;20193;-58
2022/01/22 07:13:18;;;;;;;7.57;4.97;;;;;;;0.35;47.56;99786.06;5010104;28;20229;-59
2022/01/22 07:15:45;;;;;;;8.40;5.82;;;;;;;0.41;48.08;99794.84;5009330;28;20457;-59
2022/01/22 07:18:14;;;;;;;11.67;6.53;;;;;;;0.53;47.67;99797.25;5010733;28;20193;-58
2022/01/22 07:20:41;;;;;;;7.70;4.83;;;;;;;0.54;47.32;99789.78;5010229;28;20564;-59
2022/01/22 07:23:19;;;;;;;9.43;4.87;;;;;;;0.41;47.73;99777.16;5010444;28;20198;-59
2022/01/22 07:25:46;;;;;;;7.90;4.73;;;;;;;0.43;47.66;99785.75;5010436;28;20193;-59
2022/01/22 07:28:13;;;;;;;7.87;4.80;;;;;;;0.50;47.92;99782.78;5010172;28;20246;-59
2022/01/22 07:30:41;;;;;;;10.43;4.73;;;;;;;0.62;47.21;99774.19;5009602;28;20193;-59
2022/01/22 07:33:08;;;;;;;5.20;3.80;;;;;;;0.70;46.61;99768.81;5009990;28;20197;-58
2022/01/22 07:35:36;;;;;;;4.60;3.40;;;;;;;0.73;45.94;99766.47;5009727;28;20193;-59
2022/01/22 07:38:04;;;;;;;7.97;4.90;;;;;;;0.82;46.46;99767.00;5009792;28;20206;-59
2022/01/22 07:40:31;;;;;;;8.23;4.73;;;;;;;0.91;46.30;99759.06;5010660;28;20607;-58
2022/01/22 07:42:59;;;;;;;7.17;4.00;;;;;;;0.87;45.86;99752.97;5009803;28;20276;-59
2022/01/22 07:45:26;;;;;;;4.17;3.60;;;;;;;0.85;46.59;99756.19;5009906;28;20198;-59
2022/01/22 07:47:53;;;;;;;9.87;5.37;;;;;;;0.91;47.63;99761.59;5009987;28;20200;-58
2022/01/22 07:50:20;;;;;;;8.07;4.73;;;;;;;0.93;47.63;99757.50;5009918;28;20569;-58
2022/01/22 07:52:48;;;;;;;8.97;4.27;;;;;;;0.78;48.41;99751.53;5008887;28;20205;-58
2022/01/22 07:55:19;;;;;;;7.50;4.37;;;;;;;0.83;48.38;99747.63;5007029;28;20217;-58
2022/01/22 07:57:46;;;;;;;6.50;4.33;;;;;;;0.87;48.38;99754.63;5013608;28;20204;-58
2022/01/22 08:00:14;;;;;;;7.63;5.13;;;;;;;1.01;49.22;99743.66;5013874;28;20193;-59
2022/01/22 08:02:41;;;;;;;5.77;4.23;;;;;;;1.09;48.01;99737.38;5013835;28;20190;-60
2022/01/22 08:05:09;;;;;;;6.27;4.00;;;;;;;1.15;47.84;99747.84;5013802;28;20677;-59
2022/01/22 08:07:36;;;;;;;5.63;3.97;;;;;;;1.22;48.13;99754.97;5013620;28;20276;-58
2022/01/22 08:10:08;;;;;;;7.23;4.27;;;;;;;1.23;48.08;99746.63;5013616;28;20678;-58
2022/01/22 08:12:37;;;;;;;10.07;4.25;;;;;;;1.14;47.57;99743.56;5013545;28;20442;-59
2022/01/22 08:15:05;;;;;;;7.33;4.73;;;;;;;1.20;48.85;99748.97;5013460;28;20243;-59
2022/01/22 08:17:32;;;;;;;5.77;3.70;;;;;;;1.30;47.78;99743.63;5013702;28;20200;-59
2022/01/22 08:19:59;;;;;;;5.67;3.87;;;;;;;1.23;47.90;99735.63;5013606;28;20193;-58
2022/01/22 08:22:26;;;;;;;8.13;4.60;;;;;;;1.16;48.41;99739.44;5013400;28;20669;-58
2022/01/22 08:24:54;;;;;;;4.97;4.00;;;;;;;1.20;47.75;99741.38;5013592;28;20560;-58
2022/01/22 08:27:34;;;;;;;7.80;5.07;;;;;;;1.14;47.88;99746.97;5013450;28;20650;-58
2022/01/22 08:30:02;;;;;;;4.67;3.90;;;;;;;1.18;47.95;99741.28;5013536;28;20224;-58
2022/01/22 08:32:45;;;;;;;6.67;4.37;;;;;;;1.29;48.44;99735.97;5012798;28;20587;-59
2022/01/22 08:37:56;;;;;;;6.07;4.67;;;;;;;1.50;47.55;99737.16;5013104;28;20193;-58
2022/01/22 08:40:23;;;;;;;7.27;4.90;;;;;;;1.51;47.87;99734.69;5016944;28;20228;-57
2022/01/22 08:42:51;;;;;;;6.23;5.10;;;;;;;1.56;47.70;99725.72;5016715;28;20660;-57
2022/01/22 08:45:18;;;;;;;6.27;4.60;;;;;;;1.56;47.71;99722.31;5006922;28;20261;-58
2022/01/22 08:47:45;;;;;;;7.60;4.73;;;;;;;1.64;48.20;99713.47;5002287;28;20200;-59
2022/01/22 08:50:12;;;;;;;9.77;5.03;;;;;;;1.79;47.91;99716.81;5003065;28;20661;-54
2022/01/22 08:52:39;;;;;;;8.57;5.63;;;;;;;1.83;47.61;99713.66;5003042;28;20200;-55
2022/01/22 08:55:08;;;;;;;7.63;4.30;;;;;;;1.85;47.38;99712.09;5003460;28;20213;-54
2022/01/22 08:57:35;;;;;;;9.97;5.20;;;;;;;1.85;47.37;99706.13;5010205;28;20223;-54
2022/01/22 09:00:04;;;;;;;8.70;5.13;;;;;;;1.78;47.38;99703.31;5011641;28;20941;-55
2022/01/22 09:02:31;;;;;;;6.27;5.23;;;;;;;1.72;47.97;99702.97;5010077;28;20184;-55
2022/01/22 09:04:58;;;;;;;6.27;5.13;;;;;;;1.88;47.46;99702.13;5012326;28;20181;-55
2022/01/22 09:07:25;;;;;;;6.57;5.30;;;;;;;1.96;46.87;99692.38;5011473;28;20276;-54
2022/01/22 09:09:52;;;;;;;8.67;5.00;;;;;;;2.05;47.00;99690.34;5012467;28;20656;-54
2022/01/22 09:12:19;;;;;;;8.43;5.20;;;;;;;2.19;46.94;99694.47;5012176;28;20201;-55
2022/01/22 09:14:47;;;;;;;8.30;5.67;;;;;;;2.20;46.99;99681.88;5011010;28;20450;-55
2022/01/22 09:17:16;;;;;;;10.23;5.87;;;;;;;2.30;46.99;99684.09;5012228;28;20196;-54
2022/01/22 09:19:46;;;;;;;6.13;5.03;;;;;;;2.35;46.22;99674.19;5012185;28;20193;-54
2022/01/22 09:22:13;;;;;;;5.97;4.87;;;;;;;2.35;46.60;99682.66;5012103;28;20189;-55
2022/01/22 09:24:40;;;;;;;8.50;4.90;;;;;;;2.35;46.28;99666.59;5012017;28;20188;-54
2022/01/22 09:27:08;;;;;;;4.97;3.60;;;;;;;2.26;45.88;99663.56;5011600;28;20293;-55
2022/01/22 09:29:36;;;;;;;4.57;3.77;;;;;;;2.17;46.17;99663.97;5011706;28;20220;-55
2022/01/22 09:32:04;;;;;;;6.13;4.20;;;;;;;2.34;46.29;99669.91;5011201;28;20592;-54
2022/01/22 09:34:32;;;;;;;7.87;4.87;;;;;;;2.37;45.79;99667.53;5012472;28;20549;-55
2022/01/22 09:36:59;;;;;;;6.60;4.20;;;;;;;2.14;45.22;99618.19;5013038;28;21563;-56
2022/01/22 09:39:26;;;;;;;7.27;3.90;;;;;;;2.41;45.75;99645.75;5009360;28;20276;-54
2022/01/22 09:41:53;;;;;;;5.73;4.00;;;;;;;2.42;45.38;99652.56;5011070;28;20224;-54
2022/01/22 09:44:20;;;;;;;4.90;4.00;;;;;;;2.40;45.85;99639.81;5011655;28;20201;-55
2022/01/22 09:46:48;;;;;;;6.80;4.57;;;;;;;2.22;45.68;99606.81;5011817;28;20193;-54
2022/01/22 09:49:15;;;;;;;7.83;3.93;;;;;;;2.16;44.83;99578.63;5011752;28;20193;-56
2022/01/22 09:51:44;;;;;;;5.80;3.93;;;;;;;2.57;44.29;99630.50;5011784;28;20284;-56
2022/01/22 09:54:12;;;;;;;5.03;3.67;;;;;;;2.61;42.96;99615.50;5011976;28;20232;-56
2022/01/22 09:56:41;;;;;;;6.83;4.03;;;;;;;2.66;42.34;99605.59;5011182;28;20396;-55
2022/01/22 09:59:10;;;;;;;4.50;3.00;;;;;;;2.60;42.08;99597.69;5010093;28;20649;-55
2022/01/22 10:01:37;;;;;;;5.10;3.60;;;;;;;2.65;42.63;99599.66;5010941;28;20185;-56
2022/01/22 10:04:06;;;;;;;4.37;3.20;;;;;;;2.66;42.44;99588.72;5011523;28;20568;-56
2022/01/22 10:06:34;;;;;;;3.63;3.13;;;;;;;2.65;42.79;99586.09;5011852;28;20266;-56
2022/01/22 10:09:12;;;;;;;6.83;3.90;;;;;;;2.75;43.24;99584.06;5011461;28;20281;-55
2022/01/22 10:11:40;;;;;;;4.20;3.43;;;;;;;2.78;42.94;99596.91;5011278;28;20205;-55
2022/01/22 10:14:07;;;;;;;4.63;3.67;;;;;;;2.72;42.50;99580.53;5011081;28;20204;-55
2022/01/22 10:16:36;;;;;;;4.13;3.73;;;;;;;2.76;42.53;99570.59;5011535;28;20288;-55
2022/01/22 10:19:15;;;;;;;3.47;2.80;;;;;;;2.87;41.29;99560.97;5011508;28;20284;-54
2022/01/22 10:21:44;;;;;;;4.27;3.30;;;;;;;2.88;40.73;99568.63;5011332;28;20243;-55
2022/01/22 10:24:34;;;;;;;3.43;3.10;;;;;;;2.74;41.11;99579.81;5010414;28;20189;-54
2022/01/22 10:27:29;;;;;;;5.07;3.70;;;;;;;2.84;41.51;99550.66;5008176;28;20687;-55
2022/01/22 10:29:59;;;;;;;4.73;3.33;;;;;;;2.83;40.60;99565.00;5010916;28;20299;-54
2022/01/22 10:32:37;;;;;;;4.10;3.30;;;;;;;2.80;41.46;99562.31;5010652;28;20205;-55
2022/01/22 10:35:06;;;;;;;3.20;2.90;;;;;;;2.74;41.18;99574.75;5011097;28;20221;-56
2022/01/22 10:37:33;;;;;;;4.07;3.20;;;;;;;2.83;41.66;99571.78;5010862;28;20684;-54
2022/01/22 10:40:27;;;;;;;7.03;3.77;;;;;;;2.99;41.64;99544.63;5010567;28;20189;-56
2022/01/22 10:43:10;;;;;;;3.40;3.10;;;;;;;3.23;41.28;99567.75;5010494;28;20194;-56
2022/01/22 10:45:40;;;;;;;5.43;3.43;;;;;;;3.32;40.99;99555.50;5009721;28;20272;-55
2022/01/22 10:48:21;;;;;;;3.80;2.97;;;;;;;3.39;40.32;99551.53;5009259;28;20279;-56
2022/01/22 10:51:00;;;;;;;5.10;3.23;;;;;;;3.31;39.23;99547.78;5009555;28;20197;-56
2022/01/22 10:53:42;;;;;;;5.17;3.40;;;;;;;3.30;38.09;99554.53;5010891;28;20197;-55
2022/01/22 10:56:12;;;;;;;3.53;3.13;;;;;;;3.23;38.54;99556.72;5011044;28;20227;-55
2022/01/22 10:59:05;;;;;;;5.17;3.27;;;;;;;3.11;39.16;99563.75;5010580;28;20193;-55
2022/01/22 11:01:46;;;;;;;3.47;3.00;;;;;;;3.06;39.60;99544.91;5010599;28;20236;-55
2022/01/22 11:04:15;;;;;;;4.57;2.47;;;;;;;2.88;38.93;99553.41;5010531;28;20197;-55
2022/01/22 11:06:49;;;;;;;3.73;3.20;;;;;;;2.76;39.40;99540.16;5010414;28;20196;-55
2022/01/22 11:09:16;;;;;;;3.77;2.70;;;;;;;2.63;40.11;99535.31;5010430;28;20193;-55
2022/01/22 11:11:44;;;;;;;4.47;3.00;;;;;;;2.61;40.79;99528.44;5010664;28;20201;-55
2022/01/22 11:14:13;;;;;;;6.07;4.83;;;;;;;2.75;41.33;99524.84;5010066;28;20276;-55
2022/01/22 11:16:43;;;;;;;4.43;3.43;;;;;;;2.51;41.60;99481.47;5009739;28;20686;-55
2022/01/22 11:19:11;;;;;;;6.33;4.00;;;;;;;2.85;42.28;99521.97;4990859;28;20212;-55
2022/01/22 11:21:41;;;;;;;5.20;3.57;;;;;;;3.06;40.41;99522.94;4998435;28;20205;-55
2022/01/22 11:24:09;;;;;;;2.60;2.40;;;;;;;2.88;38.88;99533.09;5010740;28;20193;-55
2022/01/22 11:26:39;;;;;;;3.80;2.93;;;;;;;2.78;38.95;99528.41;5010473;28;20704;-55
2022/01/22 11:29:08;;;;;;;11.20;3.33;;;;;;;2.56;39.29;99494.34;5010303;28;20209;-55
2022/01/22 11:31:37;;;;;;;4.20;3.47;;;;;;;2.81;39.36;99513.34;5009495;28;20194;-55
2022/01/22 11:34:06;;;;;;;7.50;4.30;;;;;;;2.80;39.93;99506.50;5010059;28;20190;-55
2022/01/22 11:36:39;;;;;;;5.03;3.70;;;;;;;2.78;40.42;99517.38;5010074;28;20217;-55
2022/01/22 11:39:07;;;;;;;4.93;3.50;;;;;;;2.70;41.31;99509.44;5010146;28;20655;-55
2022/01/22 11:41:34;;;;;;;3.50;3.20;;;;;;;2.67;41.98;99504.19;5009750;28;20712;-55
2022/01/22 11:44:07;;;;;;;8.00;3.47;;;;;;;2.67;41.60;99509.28;5010131;28;20194;-55
2022/01/22 11:46:39;;;;;;;5.10;3.67;;;;;;;2.62;41.11;99498.06;5011685;28;20662;-56
2022/01/22 11:49:22;;;;;;;5.67;4.20;;;;;;;2.57;41.71;99491.03;5011839;28;20250;-55
2022/01/22 11:51:52;;;;;;;5.17;3.87;;;;;;;2.68;40.95;99490.75;5010591;28;20734;-54
2022/01/22 11:54:21;;;;;;;7.13;4.10;;;;;;;2.75;41.67;99492.75;5010192;28;20201;-55
2022/01/22 11:56:50;;;;;;;6.47;4.83;;;;;;;2.90;40.91;99506.16;5009869;28;20224;-54
2022/01/22 11:59:28;;;;;;;5.50;4.50;;;;;;;2.89;40.58;99496.78;5010296;28;20221;-55
2022/01/22 12:02:02;;;;;;;4.50;3.70;;;;;;;2.93;39.63;99491.09;5010052;28;20193;-54
2022/01/22 12:04:30;;;;;;;6.37;3.83;;;;;;;2.66;38.38;99444.16;5009758;28;20193;-54
2022/01/22 12:07:15;;;;;;;6.00;3.60;;;;;;;2.96;37.13;99490.34;5009632;28;20431;-54
2022/01/22 12:09:52;;;;;;;4.87;3.70;;;;;;;3.03;38.16;99499.09;5009809;28;20284;-54
2022/01/22 12:15:15;;;;;;;7.87;4.20;;;;;;;3.26;38.18;99473.09;5008042;28;20205;-58
2022/01/22 12:18:13;;;;;;;4.33;3.03;;;;;;;3.26;37.22;99476.50;5010070;28;20317;-58
2022/01/22 12:23:49;;;;;;;5.13;3.47;;;;;;;3.33;36.87;99477.63;5010019;28;20573;-58
2022/01/22 12:26:16;;;;;;;4.07;3.67;;;;;;;3.45;36.65;99483.25;5009260;28;20442;-59
2022/01/22 12:28:44;;;;;;;5.20;3.70;;;;;;;3.55;37.46;99478.63;5010026;28;20289;-60
2022/01/22 12:31:16;;;;;;;8.27;4.40;;;;;;;3.64;37.02;99469.66;5009655;28;20669;-58
2022/01/22 12:33:52;;;;;;;5.07;3.27;;;;;;;3.61;36.14;99478.03;5010077;28;20198;-59
2022/01/22 12:36:25;;;;;;;10.10;4.10;;;;;;;3.60;36.30;99467.81;5009742;28;20214;-58
2022/01/22 12:39:06;;;;;;;4.37;3.70;;;;;;;3.52;37.11;99470.88;5009620;28;20193;-58
2022/01/22 12:41:46;;;;;;;7.60;4.63;;;;;;;3.41;37.67;99481.38;5009565;28;20325;-59
2022/01/22 12:44:26;;;;;;;4.93;4.07;;;;;;;3.43;37.55;99472.16;5012319;28;20197;-58
2022/01/22 12:46:54;;;;;;;6.57;4.50;;;;;;;3.58;36.87;99461.00;5013273;28;20190;-55
2022/01/22 12:49:25;;;;;;;6.23;3.87;;;;;;;3.64;37.00;99470.53;5013064;28;20229;-55
2022/01/22 12:51:56;;;;;;;6.37;3.53;;;;;;;3.54;37.22;99464.19;5013283;28;20196;-55
2022/01/22 12:54:29;;;;;;;4.10;3.37;;;;;;;3.55;36.83;99472.69;5013217;28;20197;-56
2022/01/22 12:57:04;;;;;;;4.57;3.43;;;;;;;3.38;36.93;99473.59;5012249;28;20265;-55
2022/01/22 12:59:34;;;;;;;6.17;3.70;;;;;;;3.32;36.89;99475.91;5012079;28;20575;-55
2022/01/22 13:02:01;;;;;;;4.23;3.63;;;;;;;3.22;37.35;99448.34;5012684;28;20189;-55
2022/01/22 13:04:29;;;;;;;4.23;3.50;;;;;;;3.40;36.71;99483.06;5010164;28;20224;-55